Time;durP1;ratioP1;P1;durP2;ratioP2;P2;SDS_P1;SDS_P2;PMS_P1;PMS_P2;Temp;Humidity;BMP_temperature;BMP_pressure;BME280_temperature;BME280_humidity;BME280_pressure;Samples;Min_cycle;Max_cycle;Signal;HPM_P1;HPM_P2
2022/09/20 00:01:25;;;;;;;;;;;8.60;99.90;;;-144.05;88.10;125687.94;4790021;29;20395;-81
2022/09/20 00:03:54;;;;;;;;;;;8.60;99.90;;;-144.05;88.19;125687.94;4788586;29;19919;-83
2022/09/20 00:06:25;;;;;;;;;;;8.60;99.90;;;-144.05;88.28;125687.94;4788314;30;19914;-83
2022/09/20 00:08:51;;;;;;;;;;;8.50;99.90;;;-144.05;88.13;125687.94;4788752;29;19979;-81
2022/09/20 00:11:21;;;;;;;;;;;8.60;99.90;;;-144.05;88.23;125687.94;4788861;29;19920;-79
2022/09/20 00:13:51;;;;;;;;;;;8.60;99.90;;;-144.05;88.06;125687.94;4789113;29;20377;-82
2022/09/20 00:16:39;;;;;;;;;;;8.50;99.90;;;-144.05;88.25;125687.94;4787592;29;19952;-79
2022/09/20 00:19:06;;;;;;;;;;;8.60;99.90;;;-144.05;88.00;125687.94;4787553;29;19985;-80
2022/09/20 00:21:36;;;;;;;;;;;8.50;99.90;;;-144.05;88.07;125687.94;4788981;29;19913;-82
2022/09/20 00:24:03;;;;;;;;;;;8.50;99.90;;;-144.05;88.21;125687.94;4787652;30;19913;-79
2022/09/20 00:26:28;;;;;;;;;;;8.40;99.90;;;-144.05;88.32;125687.94;4789389;29;19913;-81
2022/09/20 00:28:56;;;;;;;;;;;8.40;99.90;;;-144.05;88.14;125687.94;4790986;29;19920;-80
2022/09/20 00:31:22;;;;;;;;;;;8.40;99.90;;;-144.05;88.58;125687.94;4791264;29;19913;-82
2022/09/20 00:36:32;;;;;;;;;;;8.50;99.90;;;-144.05;88.65;125687.94;4805600;30;19925;-80
2022/09/20 00:39:01;;;;;;;;;;;8.60;99.90;;;-144.05;88.54;125687.94;4790906;29;20350;-80
2022/09/20 00:41:30;;;;;;;;;;;8.60;99.90;;;-144.05;88.60;125687.94;4792260;29;20362;-81
2022/09/20 00:43:56;;;;;;;;;;;8.70;99.90;;;-144.05;88.84;125687.94;4792723;29;19921;-83
2022/09/20 00:46:33;;;;;;;;;;;8.70;99.90;;;-144.05;88.42;125687.94;4801736;29;19901;-77
2022/09/20 00:49:06;;;;;;;;;;;8.70;99.90;;;-144.05;89.03;125687.94;4799407;29;19928;-80
2022/09/20 00:51:38;;;;;;;;;;;8.80;99.90;;;-144.05;88.68;125687.94;4790832;30;19914;-81
2022/09/20 00:54:08;;;;;;;;;;;8.80;99.90;;;-144.05;88.68;125687.94;4792286;29;19917;-83
2022/09/20 00:56:42;;;;;;;;;;;8.80;99.90;;;-144.05;88.92;125687.94;4791235;29;19956;-82
2022/09/20 00:59:18;;;;;;;;;;;8.80;99.90;;;-144.05;88.61;125687.94;4790849;29;19914;-82
2022/09/20 01:01:52;;;;;;;;;;;8.80;99.90;;;-144.05;88.26;125687.94;4790747;29;19913;-81
2022/09/20 01:04:23;;;;;;;;;;;8.80;99.90;;;-144.05;88.35;125687.94;4791511;29;19913;-82
2022/09/20 01:06:55;;;;;;;;;;;8.70;99.90;;;-144.05;88.09;125687.94;4791403;29;19932;-82
2022/09/20 01:09:20;;;;;;;;;;;8.70;99.90;;;-144.05;88.49;125687.94;4791234;29;20398;-79
2022/09/20 01:11:50;;;;;;;;;;;8.70;99.90;;;-144.05;88.26;125687.94;4792423;29;19913;-81
2022/09/20 01:14:21;;;;;;;;;;;8.60;99.90;;;-144.05;88.30;125687.94;4791105;29;19924;-81
2022/09/20 01:16:47;;;;;;;;;;;8.60;99.90;;;-144.05;88.20;125687.94;4791169;29;19914;-82
2022/09/20 01:19:33;;;;;;;;;;;8.50;99.90;;;-144.05;88.13;125687.94;4791159;29;20230;-81
2022/09/20 01:22:11;;;;;;;;;;;8.50;99.90;;;-144.05;88.24;125687.94;4791702;30;20329;-84
2022/09/20 01:25:13;;;;;;;;;;;8.50;99.90;;;-144.05;88.54;125687.94;4792769;29;20389;-79
2022/09/20 01:27:52;;;;;;;;;;;8.40;99.90;;;-144.05;87.98;125687.94;4791103;29;20378;-82
2022/09/20 01:30:26;;;;;;;;;;;8.40;99.90;;;-144.05;88.47;125687.94;4800221;29;19921;-82
2022/09/20 01:33:19;;;;;;;;;;;8.40;99.90;;;-144.05;88.66;125687.94;4799892;29;19924;-82
2022/09/20 01:35:50;;;;;;;;;;;8.40;99.90;;;-144.05;88.48;125687.94;4800057;29;19920;-83
2022/09/20 01:38:50;;;;;;;;;;;8.40;99.90;;;-144.05;88.38;125687.94;4792022;29;19942;-81
2022/09/20 01:41:53;;;;;;;;;;;8.40;99.90;;;-144.05;88.51;125687.94;4794512;29;19913;-82
2022/09/20 01:44:44;;;;;;;;;;;8.40;99.90;;;-144.05;88.40;125687.94;4797347;30;19949;-83
2022/09/20 01:47:36;;;;;;;;;;;8.40;99.90;;;-144.05;89.00;125687.94;4795414;30;19917;-83
2022/09/20 01:50:01;;;;;;;;;;;8.40;99.90;;;-144.05;88.52;125687.94;4792828;29;19971;-82
2022/09/20 01:52:49;;;;;;;;;;;8.40;99.90;;;-144.05;88.46;125687.94;4791601;29;19914;-83
2022/09/20 01:55:39;;;;;;;;;;;8.40;99.90;;;-144.05;88.54;125687.94;4791282;30;19913;-85
2022/09/20 01:58:44;;;;;;;;;;;8.50;99.90;;;-144.05;88.71;125687.94;4793519;29;19921;-84
2022/09/20 02:01:46;;;;;;;;;;;8.50;99.90;;;-144.05;88.55;125687.94;4797772;30;19917;-85
2022/09/20 02:04:57;;;;;;;;;;;8.50;99.90;;;-144.05;88.56;125687.94;4798825;29;19913;-85
2022/09/20 02:08:06;;;;;;;;;;;8.60;99.90;;;-144.05;88.78;125687.94;4802760;30;19913;-84
2022/09/20 02:11:13;;;;;;;;;;;8.60;99.90;;;-144.05;88.81;125687.94;4808636;30;19924;-82
2022/09/20 02:13:38;;;;;;;;;;;8.70;99.90;;;-144.05;88.79;125687.94;4798478;30;19922;-82
2022/09/20 02:16:38;;;;;;;;;;;8.70;99.90;;;-144.05;88.44;125687.94;4797004;29;19914;-82
2022/09/20 02:19:40;;;;;;;;;;;8.70;99.90;;;-144.05;88.75;125687.94;4793618;29;19914;-85
2022/09/20 02:22:39;;;;;;;;;;;8.70;99.90;;;-144.05;88.86;125687.94;4792578;30;19913;-83
2022/09/20 02:25:31;;;;;;;;;;;8.70;99.90;;;-144.05;88.65;125687.94;4792941;29;19914;-83
2022/09/20 02:28:32;;;;;;;;;;;8.80;99.90;;;-144.05;88.78;125687.94;4790943;29;19920;-82
2022/09/20 02:31:42;;;;;;;;;;;8.80;99.90;;;-144.05;88.96;125687.94;4788626;30;20369;-83
2022/09/20 02:34:54;;;;;;;;;;;8.80;99.90;;;-144.05;88.65;125687.94;4789539;30;19924;-84
2022/09/20 02:37:38;;;;;;;;;;;8.90;99.90;;;-144.05;88.89;125687.94;4789174;29;20396;-84
2022/09/20 02:40:50;;;;;;;;;;;8.90;99.90;;;-144.05;88.53;125687.94;4789526;30;19917;-81
2022/09/20 02:44:21;;;;;;;;;;;8.90;99.90;;;-144.05;88.74;125687.94;4788713;29;19917;-82
2022/09/20 02:47:21;;;;;;;;;;;8.90;99.90;;;-144.05;88.60;125687.94;4782929;30;19938;-81
2022/09/20 02:50:03;;;;;;;;;;;8.90;99.90;;;-144.05;88.61;125687.94;4788079;29;19917;-82
2022/09/20 02:52:56;;;;;;;;;;;8.90;99.90;;;-144.05;88.53;125687.94;4789988;29;20354;-83
2022/09/20 02:55:37;;;;;;;;;;;8.90;99.90;;;-144.05;88.28;125687.94;4791206;29;20000;-80
2022/09/20 02:58:40;;;;;;;;;;;8.90;99.90;;;-144.05;88.42;125687.94;4798760;29;19901;-78
2022/09/20 03:01:18;;;;;;;;;;;8.80;99.90;;;-144.05;88.34;125687.94;4793791;30;19913;-80
2022/09/20 03:04:34;;;;;;;;;;;8.80;99.90;;;-144.05;88.12;125687.94;4791666;30;19913;-81
2022/09/20 03:07:36;;;;;;;;;;;8.80;99.90;;;-144.05;88.53;125687.94;4792138;29;19913;-82
2022/09/20 03:10:49;;;;;;;;;;;8.70;99.90;;;-144.05;88.36;125687.94;4792471;29;20277;-79
2022/09/20 03:13:47;;;;;;;;;;;8.70;99.90;;;-144.05;88.57;125687.94;4792802;29;20282;-80
2022/09/20 03:16:25;;;;;;;;;;;8.70;99.90;;;-144.05;88.38;125687.94;4791641;29;19921;-81
2022/09/20 03:19:32;;;;;;;;;;;8.70;99.90;;;-144.05;88.42;125687.94;4791652;29;19975;-81
2022/09/20 03:22:21;;;;;;;;;;;8.70;99.90;;;-144.05;88.35;125687.94;4791389;29;19970;-81
2022/09/20 03:25:40;;;;;;;;;;;8.70;99.90;;;-144.05;88.31;125687.94;4792110;29;19942;-80
2022/09/20 03:28:30;;;;;;;;;;;8.70;99.90;;;-144.05;88.15;125687.94;4788875;29;19913;-81
2022/09/20 03:31:46;;;;;;;;;;;8.60;99.90;;;-144.05;88.17;125687.94;4787626;30;19917;-82
2022/09/20 03:34:37;;;;;;;;;;;8.60;99.90;;;-144.05;88.15;125687.94;4788153;29;19928;-80
2022/09/20 03:37:53;;;;;;;;;;;8.50;99.90;;;-144.05;88.07;125687.94;4786213;30;19921;-80
2022/09/20 03:40:28;;;;;;;;;;;8.50;99.90;;;-144.05;88.39;125687.94;4786316;30;19925;-81
2022/09/20 03:43:11;;;;;;;;;;;8.40;99.90;;;-144.05;88.29;125687.94;4786304;30;19972;-81
2022/09/20 03:45:59;;;;;;;;;;;8.30;99.90;;;-144.05;88.28;125687.94;4786198;29;19917;-80
2022/09/20 03:49:32;;;;;;;;;;;8.30;99.90;;;-144.05;88.42;125687.94;4786211;29;19913;-81
2022/09/20 03:52:38;;;;;;;;;;;8.30;99.90;;;-144.05;88.64;125687.94;4785668;29;19914;-81
2022/09/20 03:55:29;;;;;;;;;;;8.30;99.90;;;-144.05;88.61;125687.94;4797675;29;19921;-79
2022/09/20 03:58:34;;;;;;;;;;;8.30;99.90;;;-144.05;88.88;125687.94;4807623;29;19902;-80
2022/09/20 04:01:17;;;;;;;;;;;8.30;99.90;;;-144.05;88.79;125687.94;4827335;29;19993;-80
2022/09/20 04:04:07;;;;;;;;;;;8.30;99.90;;;-144.05;88.81;125687.94;4794435;29;19973;-80
2022/09/20 04:06:41;;;;;;;;;;;8.30;99.90;;;-144.05;88.95;125687.94;4796345;29;20012;-79
2022/09/20 04:09:50;;;;;;;;;;;8.30;99.90;;;-144.05;89.53;125687.94;4791365;29;19999;-81
2022/09/20 04:12:56;;;;;;;;;;;8.20;99.90;;;-144.05;89.06;125687.94;4790576;29;19937;-82
2022/09/20 04:16:22;;;;;;;;;;;8.20;99.90;;;-144.05;88.89;125687.94;4792669;29;20006;-80
2022/09/20 04:19:00;;;;;;;;;;;8.20;99.90;;;-144.05;88.92;125687.94;4792109;29;19921;-81
2022/09/20 04:21:57;;;;;;;;;;;8.20;99.90;;;-144.05;88.96;125687.94;4792484;30;19939;-81
2022/09/20 04:24:29;;;;;;;;;;;8.20;99.90;;;-144.05;89.31;125687.94;4792558;30;19956;-82
2022/09/20 04:27:27;;;;;;;;;;;8.20;99.90;;;-144.05;88.92;125687.94;4792864;30;20310;-83
2022/09/20 04:30:05;;;;;;;;;;;8.10;99.90;;;-144.05;89.06;125687.94;4794043;29;19939;-82
2022/09/20 04:32:46;;;;;;;;;;;8.10;99.90;;;-144.05;89.09;125687.94;4792724;29;19913;-81
2022/09/20 04:39:46;;;;;;;;;;;8.00;99.90;;;-144.05;89.36;125687.94;4825751;24;19941;-82
2022/09/20 04:42:21;;;;;;;;;;;8.00;99.90;;;-144.05;89.49;125687.94;4793901;30;20449;-85
2022/09/20 04:45:09;;;;;;;;;;;8.10;99.90;;;-144.05;89.59;125687.94;4810705;29;19968;-83
2022/09/20 04:48:20;;;;;;;;;;;8.20;99.90;;;-144.05;90.42;125687.94;4796402;30;19943;-84
2022/09/20 04:51:23;;;;;;;;;;;8.30;99.90;;;-144.05;89.66;125687.94;4791250;29;19913;-83
2022/09/20 04:54:25;;;;;;;;;;;8.40;99.90;;;-144.05;89.79;125687.94;4774270;30;20004;-83
2022/09/20 04:57:54;;;;;;;;;;;8.50;99.90;;;-144.05;89.67;125687.94;4788346;29;19917;-82
2022/09/20 05:00:23;;;;;;;;;;;8.70;99.90;;;-144.05;89.83;125687.94;4789578;29;19977;-83
2022/09/20 05:02:49;;;;;;;;;;;8.70;99.90;;;-144.05;89.68;125687.94;4774785;30;20275;-85
2022/09/20 05:05:39;;;;;;;;;;;8.80;99.90;;;-144.05;89.62;125687.94;4791348;29;20000;-82
2022/09/20 05:08:38;;;;;;;;;;;8.80;99.90;;;-144.05;89.56;125687.94;4792134;29;20489;-84
2022/09/20 05:11:52;;;;;;;;;;;8.90;99.90;;;-144.05;90.01;125687.94;4799981;30;19914;-84
2022/09/20 05:14:53;;;;;;;;;;;8.90;99.90;;;-144.05;89.75;125687.94;4796833;30;19925;-84
2022/09/20 05:17:50;;;;;;;;;;;9.00;99.90;;;-144.05;90.09;125687.94;4792093;30;19975;-85
2022/09/20 05:20:44;;;;;;;;;;;9.10;99.90;;;-144.05;90.11;125687.94;4779802;30;19925;-83
2022/09/20 05:24:10;;;;;;;;;;;9.10;99.90;;;-144.05;89.77;125687.94;4778194;30;19913;-84
2022/09/20 05:27:05;;;;;;;;;;;9.10;99.90;;;-144.05;90.22;125687.94;4776552;30;19914;-83
2022/09/20 05:30:05;;;;;;;;;;;9.20;99.90;;;-144.05;90.13;125687.94;4776597;30;19973;-82
2022/09/20 05:33:04;;;;;;;;;;;9.20;99.90;;;-144.05;89.89;125687.94;4790692;30;20397;-82
2022/09/20 05:35:40;;;;;;;;;;;9.20;99.90;;;-144.05;89.83;125687.94;4780896;30;19986;-82
2022/09/20 05:38:43;;;;;;;;;;;9.30;99.90;;;-144.05;90.08;125687.94;4792851;29;19917;-84
2022/09/20 05:41:33;;;;;;;;;;;9.30;99.90;;;-144.05;89.82;125687.94;4781507;30;19914;-83
2022/09/20 05:44:36;;;;;;;;;;;9.40;99.90;;;-144.05;89.65;125687.94;4785373;30;19913;-80
2022/09/20 05:47:35;;;;;;;;;;;9.40;99.90;;;-144.05;89.64;125687.94;4799522;30;19925;-79
2022/09/20 05:50:38;;;;;;;;;;;9.40;99.90;;;-144.05;89.85;125687.94;4785378;30;19914;-82
2022/09/20 05:54:01;;;;;;;;;;;9.40;99.90;;;-144.05;89.73;125687.94;4778563;30;19918;-79
2022/09/20 05:56:48;;;;;;;;;;;9.50;99.90;;;-144.05;89.59;125687.94;4779509;30;19913;-80
2022/09/20 05:59:23;;;;;;;;;;;9.60;99.90;;;-144.05;89.51;125687.94;4778766;30;20305;-80
2022/09/20 06:02:14;;;;;;;;;;;9.60;99.90;;;-144.05;89.68;125687.94;4793603;29;20410;-83
2022/09/20 06:05:09;;;;;;;;;;;9.60;99.90;;;-144.05;89.66;125687.94;4777036;30;19914;-82
2022/09/20 06:08:02;;;;;;;;;;;9.70;99.90;;;-144.05;89.47;125687.94;4778911;29;19940;-84
2022/09/20 06:10:51;;;;;;;;;;;9.70;99.90;;;-144.05;89.40;125687.94;4783944;30;19914;-82
2022/09/20 06:13:37;;;;;;;;;;;9.70;99.90;;;-144.05;89.51;125687.94;4778694;30;19993;-83
2022/09/20 06:16:06;;;;;;;;;;;9.80;99.90;;;-144.05;89.48;125687.94;4783505;30;19914;-80
2022/09/20 06:18:46;;;;;;;;;;;9.80;99.90;;;-144.05;89.17;125687.94;4795413;29;19957;-83
2022/09/20 06:21:39;;;;;;;;;;;9.90;99.90;;;-144.05;89.32;125687.94;4782098;30;19924;-83
2022/09/20 06:24:22;;;;;;;;;;;9.90;99.90;;;-144.05;89.27;125687.94;4780764;30;19914;-83
2022/09/20 06:26:53;;;;;;;;;;;10.00;99.90;;;-144.05;89.14;125687.94;4789855;29;19909;-81
2022/09/20 06:29:32;;;;;;;;;;;10.10;99.90;;;-144.05;89.14;125687.94;4792346;30;19937;-79
2022/09/20 06:31:58;;;;;;;;;;;10.10;99.90;;;-144.05;89.04;125687.94;4806999;29;19901;-79
2022/09/20 06:34:25;;;;;;;;;;;10.10;99.90;;;-144.05;88.86;125687.94;4789040;30;19952;-81
2022/09/20 06:43:32;;;;;;;;;;;10.40;99.90;;;-144.05;88.46;125687.94;4778440;30;20340;-81
2022/09/20 06:45:58;;;;;;;;;;;10.50;99.90;;;-144.05;87.51;125687.94;4791642;29;20004;-82
2022/09/20 06:48:24;;;;;;;;;;;10.60;99.90;;;-144.05;87.88;125687.94;4778319;30;19950;-83
2022/09/20 06:50:51;;;;;;;;;;;10.70;99.90;;;-144.05;87.83;125687.94;4776466;30;19914;-81
2022/09/20 06:53:25;;;;;;;;;;;10.70;99.90;;;-144.05;87.58;125687.94;4777928;30;19918;-80
2022/09/20 06:55:51;;;;;;;;;;;10.70;99.90;;;-144.05;87.63;125687.94;4776670;30;19930;-82
2022/09/20 06:58:17;;;;;;;;;;;10.70;99.90;;;-144.05;87.20;125687.94;4778201;30;19921;-80
2022/09/20 07:00:43;;;;;;;;;;;10.80;99.90;;;-144.05;87.47;125687.94;4791138;30;20289;-83
2022/09/20 07:03:11;;;;;;;;;;;10.90;99.90;;;-144.05;86.74;125687.94;4777186;30;19914;-82
2022/09/20 07:05:37;;;;;;;;;;;11.00;99.90;;;-144.05;86.77;125687.94;4777187;30;20279;-81
2022/09/20 07:08:03;;;;;;;;;;;11.00;99.90;;;-144.05;86.61;125687.94;4778284;30;20000;-81
2022/09/20 07:10:29;;;;;;;;;;;11.00;99.90;;;-144.05;86.26;125687.94;4776087;30;19914;-82
2022/09/20 07:13:00;;;;;;;;;;;11.10;99.90;;;-144.05;86.20;125687.94;4777832;30;19994;-82
2022/09/20 07:15:30;;;;;;;;;;;11.10;99.90;;;-144.05;86.27;125687.94;4775526;30;19914;-80
2022/09/20 07:17:55;;;;;;;;;;;11.10;99.90;;;-144.05;86.26;125687.94;4790019;29;19914;-80
2022/09/20 07:20:22;;;;;;;;;;;11.20;99.90;;;-144.05;85.47;125687.94;4790898;29;19914;-81
2022/09/20 07:22:49;;;;;;;;;;;11.20;99.90;;;-144.05;85.54;125687.94;4790133;29;20016;-82
2022/09/20 07:25:17;;;;;;;;;;;11.30;99.90;;;-144.05;84.80;125687.94;4777088;30;20404;-81
2022/09/20 07:27:45;;;;;;;;;;;11.50;99.90;;;-144.05;83.83;125687.94;4777415;30;19982;-82
2022/09/20 07:30:13;;;;;;;;;;;11.70;99.90;;;-144.05;82.64;125687.94;4790633;29;19920;-83
2022/09/20 07:32:39;;;;;;;;;;;11.80;99.90;;;-144.05;82.21;125687.94;4776142;30;19975;-81
2022/09/20 07:35:10;;;;;;;;;;;11.90;99.90;;;-144.05;82.11;125687.94;4776661;30;19959;-82
2022/09/20 07:37:40;;;;;;;;;;;12.20;99.90;;;-144.05;79.69;125687.94;4787169;29;19930;-81
2022/09/20 07:40:09;;;;;;;;;;;12.70;99.90;;;-144.05;74.42;125687.94;4789652;29;19924;-81
2022/09/20 07:42:35;;;;;;;;;;;12.90;99.90;;;-144.05;71.82;125687.94;4776146;30;19913;-82
2022/09/20 07:45:02;;;;;;;;;;;12.90;99.90;;;-144.05;73.17;125687.94;4775562;30;19963;-82
2022/09/20 07:47:31;;;;;;;;;;;12.90;99.90;;;-144.05;73.54;125687.94;4790120;29;19925;-83
2022/09/20 07:49:57;;;;;;;;;;;13.00;99.90;;;-144.05;74.18;125687.94;4775891;30;19952;-82
2022/09/20 07:52:23;;;;;;;;;;;13.00;99.90;;;-144.05;74.41;125687.94;4775528;30;19914;-82
2022/09/20 07:54:49;;;;;;;;;;;13.10;99.90;;;-144.05;74.67;125687.94;4791237;29;19918;-82
2022/09/20 07:57:15;;;;;;;;;;;13.10;99.90;;;-144.05;74.41;125687.94;4775523;30;19913;-83
2022/09/20 07:59:41;;;;;;;;;;;13.10;99.90;;;-144.05;73.11;125687.94;4773390;30;19994;-79
2022/09/20 08:02:14;;;;;;;;;;;13.10;99.90;;;-144.05;73.70;125687.94;4771720;30;20343;-78
2022/09/20 08:04:40;;;;;;;;;;;13.10;99.90;;;-144.05;74.55;125687.94;4785545;29;19962;-79
2022/09/20 08:07:06;;;;;;;;;;;13.10;99.90;;;-144.05;73.38;125687.94;4770903;30;19913;-79
2022/09/20 08:09:31;;;;;;;;;;;13.20;99.90;;;-144.05;70.91;125687.94;4786722;29;19920;-80
2022/09/20 08:11:57;;;;;;;;;;;13.10;99.90;;;-144.05;71.57;125687.94;4791249;29;19977;-80
2022/09/20 08:14:23;;;;;;;;;;;13.10;99.90;;;-144.05;71.22;125687.94;4775403;30;20004;-79
2022/09/20 08:16:50;;;;;;;;;;;13.00;99.90;;;-144.05;71.57;125687.94;4773697;30;20011;-78
2022/09/20 08:19:22;;;;;;;;;;;13.00;99.90;;;-144.05;72.43;125687.94;4786464;29;19962;-77
2022/09/20 08:21:50;;;;;;;;;;;13.00;99.90;;;-144.05;73.01;125687.94;4773682;30;19914;-79
2022/09/20 08:24:16;;;;;;;;;;;13.10;99.90;;;-144.05;72.91;125687.94;4773821;30;20025;-78
2022/09/20 08:26:43;;;;;;;;;;;13.20;99.90;;;-144.05;71.43;125687.94;4772616;30;19913;-79
2022/09/20 08:29:10;;;;;;;;;;;13.30;99.90;;;-144.05;71.00;125687.94;4772433;30;19914;-80
2022/09/20 08:31:40;;;;;;;;;;;13.30;99.90;;;-144.05;71.38;125687.94;4772440;30;19914;-82
2022/09/20 08:34:10;;;;;;;;;;;13.20;99.90;;;-144.05;71.12;125687.94;4771908;30;19918;-84
2022/09/20 08:36:40;;;;;;;;;;;13.20;99.90;;;-144.05;71.14;125687.94;4785400;29;19939;-83
2022/09/20 08:39:07;;;;;;;;;;;13.30;99.90;;;-144.05;71.52;125687.94;4769877;30;19918;-84
2022/09/20 08:41:46;;;;;;;;;;;13.40;99.90;;;-144.05;70.80;125687.94;4784709;30;19914;-83
2022/09/20 08:44:49;;;;;;;;;;;13.70;99.90;;;-144.05;70.58;125687.94;4770894;30;19914;-83
2022/09/20 08:47:26;;;;;;;;;;;13.90;99.90;;;-144.05;69.06;125687.94;4772830;30;19921;-84
2022/09/20 08:49:53;;;;;;;;;;;14.00;99.90;;;-144.05;69.43;125687.94;4774743;30;20355;-85
2022/09/20 08:52:31;;;;;;;;;;;13.80;99.90;;;-144.05;70.23;125687.94;4774991;30;19914;-83
2022/09/20 08:54:58;;;;;;;;;;;13.70;99.90;;;-144.05;70.27;125687.94;4775028;30;19939;-84
2022/09/20 08:57:32;;;;;;;;;;;13.50;99.90;;;-144.05;72.28;125687.94;4775389;30;20020;-83
2022/09/20 09:00:16;;;;;;;;;;;13.40;99.90;;;-144.05;73.77;125687.94;4790161;30;19930;-82
2022/09/20 09:02:42;;;;;;;;;;;13.30;99.90;;;-144.05;74.39;125687.94;4777484;30;19974;-84
2022/09/20 09:05:39;;;;;;;;;;;13.30;99.90;;;-144.05;74.67;125687.94;4776932;30;19914;-82
2022/09/20 09:08:15;;;;;;;;;;;13.30;99.90;;;-144.05;75.17;125687.94;4787612;30;19923;-83
2022/09/20 09:10:55;;;;;;;;;;;13.40;99.90;;;-144.05;74.33;125687.94;4790227;29;19929;-84
2022/09/20 09:13:33;;;;;;;;;;;13.60;99.90;;;-144.05;74.27;125687.94;4789542;29;19922;-83
2022/09/20 09:16:11;;;;;;;;;;;13.60;99.90;;;-144.05;73.18;125687.94;4789425;29;19913;-84
2022/09/20 09:18:43;;;;;;;;;;;13.60;99.90;;;-144.05;72.70;125687.94;4775731;30;19914;-83
2022/09/20 09:21:41;;;;;;;;;;;13.80;99.90;;;-144.05;72.83;125687.94;4788270;29;19920;-83
2022/09/20 09:24:19;;;;;;;;;;;13.90;99.90;;;-144.05;71.94;125687.94;4776328;30;19913;-82
2022/09/20 09:26:45;;;;;;;;;;;14.00;99.90;;;-144.05;73.49;125687.94;4775419;29;19913;-84
2022/09/20 09:29:22;;;;;;;;;;;13.90;99.90;;;-144.05;73.77;125687.94;4776587;30;19964;-82
2022/09/20 09:31:53;;;;;;;;;;;13.90;99.90;;;-144.05;73.12;125687.94;4777270;30;19914;-85
2022/09/20 09:34:37;;;;;;;;;;;13.90;99.90;;;-144.05;72.35;125687.94;4775366;30;19922;-84
2022/09/20 09:37:03;;;;;;;;;;;13.70;99.90;;;-144.05;72.90;125687.94;4774646;30;19917;-83
2022/09/20 09:39:34;;;;;;;;;;;13.80;99.90;;;-144.05;73.66;125687.94;4776165;30;19917;-84
2022/09/20 09:42:21;;;;;;;;;;;13.90;99.90;;;-144.05;71.91;125687.94;4776202;30;19914;-84
2022/09/20 09:44:49;;;;;;;;;;;13.90;99.90;;;-144.05;72.91;125687.94;4777336;30;19960;-84
2022/09/20 09:47:36;;;;;;;;;;;14.20;99.90;;;-144.05;72.88;125687.94;4780267;30;19968;-83
2022/09/20 09:50:02;;;;;;;;;;;14.20;99.90;;;-144.05;71.30;125687.94;4790839;30;19902;-82
2022/09/20 09:52:32;;;;;;;;;;;14.50;99.90;;;-144.05;71.12;125687.94;4805163;29;19927;-82
2022/09/20 09:55:01;;;;;;;;;;;14.70;99.90;;;-144.05;66.36;125687.94;4775780;30;20000;-82
2022/09/20 09:57:54;;;;;;;;;;;14.90;99.90;;;-144.05;67.85;125687.94;4773760;30;20012;-85
2022/09/20 10:00:23;;;;;;;;;;;14.90;99.90;;;-144.05;67.58;125687.94;4779431;30;19935;-80
2022/09/20 10:03:35;;;;;;;;;;;15.00;99.90;;;-144.05;68.25;125687.94;4777829;30;19914;-83
2022/09/20 10:06:28;;;;;;;;;;;15.10;99.90;;;-144.05;66.09;125687.94;4793616;29;19920;-83
2022/09/20 10:08:57;;;;;;;;;;;15.30;99.90;;;-144.05;65.97;125687.94;4781161;30;19914;-83
2022/09/20 10:11:57;;;;;;;;;;;15.40;99.90;;;-144.05;64.76;125687.94;4774255;30;19925;-83
2022/09/20 10:14:48;;;;;;;;;;;15.50;99.90;;;-144.05;60.05;125687.94;4786596;30;19921;-83
2022/09/20 10:17:51;;;;;;;;;;;15.60;99.90;;;-144.05;60.78;125687.94;4773181;30;19914;-81
2022/09/20 10:20:54;;;;;;;;;;;15.90;99.90;;;-144.05;58.51;125687.94;4773609;30;19917;-83
2022/09/20 10:23:56;;;;;;;;;;;16.10;99.90;;;-144.05;58.27;125687.94;4773048;30;20290;-84
2022/09/20 10:27:10;;;;;;;;;;;16.00;99.90;;;-144.05;57.94;125687.94;4772461;30;20385;-84
2022/09/20 10:30:10;;;;;;;;;;;15.80;99.90;;;-144.05;58.88;125687.94;4784541;29;19902;-83
2022/09/20 10:33:05;;;;;;;;;;;15.50;99.90;;;-144.05;59.24;125687.94;4775938;30;20010;-82
2022/09/20 10:36:04;;;;;;;;;;;15.20;99.90;;;-144.05;60.67;125687.94;4774944;30;20377;-84
2022/09/20 10:38:52;;;;;;;;;;;15.20;99.90;;;-144.05;61.28;125687.94;4773191;30;19917;-82
2022/09/20 10:45:11;;;;;;;;;;;15.20;99.90;;;-144.05;61.38;125687.94;4773843;30;19925;-83
2022/09/20 10:48:03;;;;;;;;;;;15.10;99.90;;;-144.05;62.09;125687.94;4787195;29;20370;-81
2022/09/20 10:50:59;;;;;;;;;;;15.10;99.90;;;-144.05;61.19;125687.94;4786831;29;19913;-83
2022/09/20 10:53:48;;;;;;;;;;;15.10;99.90;;;-144.05;60.73;125687.94;4772512;30;19937;-84
2022/09/20 10:56:35;;;;;;;;;;;15.30;99.90;;;-144.05;60.28;125687.94;4771595;30;19921;-82
2022/09/20 10:59:34;;;;;;;;;;;15.40;99.90;;;-144.05;60.02;125687.94;4786168;29;20370;-82
2022/09/20 11:02:37;;;;;;;;;;;15.70;99.90;;;-144.05;59.50;125687.94;4772963;30;19938;-83
2022/09/20 11:05:30;;;;;;;;;;;16.00;99.90;;;-144.05;56.96;125687.94;4787146;30;19918;-84
2022/09/20 11:08:12;;;;;;;;;;;16.30;99.90;;;-144.05;56.39;125687.94;4772301;30;19914;-82
2022/09/20 11:10:50;;;;;;;;;;;16.30;99.90;;;-144.05;55.52;125687.94;4771296;30;20290;-81
2022/09/20 11:13:28;;;;;;;;;;;16.20;99.90;;;-144.05;56.41;125687.94;4771612;30;19972;-83
2022/09/20 11:16:10;;;;;;;;;;;16.20;99.90;;;-144.05;54.70;125687.94;4786820;29;19913;-84
2022/09/20 11:18:51;;;;;;;;;;;16.20;99.90;;;-144.05;54.32;125687.94;4773186;30;19963;-80
2022/09/20 11:21:31;;;;;;;;;;;16.20;99.90;;;-144.05;55.84;125687.94;4773867;30;19914;-83
2022/09/20 11:24:32;;;;;;;;;;;16.20;99.90;;;-144.05;54.83;125687.94;4771876;30;20362;-83
2022/09/20 11:27:17;;;;;;;;;;;16.30;99.90;;;-144.05;54.70;125687.94;4772479;30;20251;-84
2022/09/20 11:29:54;;;;;;;;;;;16.30;99.90;;;-144.05;55.75;125687.94;4772736;30;20426;-82
2022/09/20 11:32:34;;;;;;;;;;;16.20;99.90;;;-144.05;55.48;125687.94;4772193;30;19914;-82
2022/09/20 11:35:31;;;;;;;;;;;16.10;99.90;;;-144.05;54.82;125687.94;4772548;30;19967;-83
2022/09/20 11:38:45;;;;;;;;;;;16.00;99.90;;;-144.05;54.22;125687.94;4777082;30;19957;-82
2022/09/20 11:41:28;;;;;;;;;;;15.80;99.90;;;-144.05;55.03;125687.94;4776978;30;19950;-83
2022/09/20 11:44:01;;;;;;;;;;;15.70;99.90;;;-144.05;56.02;125687.94;4791529;30;19935;-81
2022/09/20 11:46:46;;;;;;;;;;;15.50;99.90;;;-144.05;56.01;125687.94;4774212;30;20362;-85
2022/09/20 11:49:18;;;;;;;;;;;15.40;99.90;;;-144.05;56.18;125687.94;4772191;30;19961;-82
2022/09/20 11:52:10;;;;;;;;;;;15.40;99.90;;;-144.05;56.01;125687.94;4773726;30;19914;-81
2022/09/20 11:55:15;;;;;;;;;;;15.40;99.90;;;-144.05;54.65;125687.94;4785316;29;20008;-79
2022/09/20 11:57:41;;;;;;;;;;;15.60;99.90;;;-144.05;55.26;125687.94;4774267;30;19925;-80
2022/09/20 12:00:09;;;;;;;;;;;15.90;99.90;;;-144.05;54.65;125687.94;4772547;30;20366;-82
2022/09/20 12:02:52;;;;;;;;;;;16.10;99.90;;;-144.05;54.14;125687.94;4770733;30;19920;-82
2022/09/20 12:05:28;;;;;;;;;;;16.30;99.90;;;-144.05;53.67;125687.94;4771979;30;19917;-82
2022/09/20 12:07:58;;;;;;;;;;;16.60;99.90;;;-144.05;52.53;125687.94;4774889;30;19963;-79
2022/09/20 12:10:29;;;;;;;;;;;16.70;99.90;;;-144.05;50.96;125687.94;4792414;30;20343;-79
2022/09/20 12:12:59;;;;;;;;;;;16.70;99.90;;;-144.05;51.72;125687.94;4778956;30;19914;-80
2022/09/20 12:15:35;;;;;;;;;;;16.80;99.90;;;-144.05;52.86;125687.94;4778885;30;19913;-80
2022/09/20 12:18:25;;;;;;;;;;;16.70;99.90;;;-144.05;51.71;125687.94;4779630;30;19918;-81
2022/09/20 12:20:54;;;;;;;;;;;16.60;99.90;;;-144.05;52.59;125687.94;4775545;30;19932;-80
2022/09/20 12:23:39;;;;;;;;;;;16.40;99.90;;;-144.05;52.43;125687.94;4790477;29;19978;-78
2022/09/20 12:26:12;;;;;;;;;;;16.30;99.90;;;-144.05;52.34;125687.94;4790007;29;20004;-81